createdAt,value
2022-11-24T00:00:59.723Z,0.50
2022-11-24T00:02:03.879Z,0.50
2022-11-24T00:03:08.051Z,0.50
2022-11-24T00:04:12.030Z,0.50
2022-11-24T00:05:16.025Z,0.50
2022-11-24T00:06:19.932Z,0.00
2022-11-24T00:07:23.893Z,0.00
2022-11-24T00:08:27.915Z,0.00
2022-11-24T00:09:31.927Z,1.00
2022-11-24T00:10:35.938Z,1.25
2022-11-24T00:11:39.925Z,0.50
2022-11-24T00:12:43.927Z,0.00
2022-11-24T00:13:47.930Z,0.00
2022-11-24T00:14:51.925Z,0.00
2022-11-24T00:15:55.824Z,0.00
2022-11-24T00:16:59.895Z,1.00
2022-11-24T00:18:03.626Z,1.50
2022-11-24T00:19:07.523Z,0.75
2022-11-24T00:20:11.421Z,0.00
2022-11-24T00:21:16.345Z,0.00
2022-11-24T00:22:20.436Z,0.00
2022-11-24T00:23:24.616Z,0.00
2022-11-24T00:24:28.416Z,0.00
2022-11-24T00:25:32.451Z,0.50
2022-11-24T00:26:36.452Z,0.00
2022-11-24T00:27:40.363Z,0.00
2022-11-24T00:28:44.453Z,0.00
2022-11-24T00:29:48.759Z,0.00
2022-11-24T00:30:52.732Z,0.00
2022-11-24T00:31:56.762Z,0.00
2022-11-24T00:33:00.824Z,0.25
2022-11-24T00:34:04.458Z,0.25
2022-11-24T00:35:08.460Z,0.50
2022-11-24T00:36:12.357Z,0.50
2022-11-24T00:37:16.269Z,0.50
2022-11-24T00:38:20.052Z,0.50
2022-11-24T00:39:23.953Z,0.50
2022-11-24T00:40:32.124Z,0.00
2022-11-24T00:41:32.880Z,0.00
2022-11-24T00:42:37.186Z,0.00
2022-11-24T00:43:41.393Z,0.50
2022-11-24T00:44:45.390Z,0.00
2022-11-24T00:45:49.821Z,0.00
2022-11-24T00:46:53.863Z,0.00
2022-11-24T00:47:57.894Z,1.50
2022-11-24T00:49:02.118Z,0.50
2022-11-24T00:50:06.113Z,0.75
2022-11-24T00:51:10.321Z,1.50
2022-11-24T00:52:14.214Z,0.50
2022-11-24T00:53:18.423Z,0.75
2022-11-24T00:54:22.631Z,1.00
2022-11-24T00:55:26.732Z,1.00
2022-11-24T00:56:31.245Z,1.75
2022-11-24T00:57:35.552Z,2.00
2022-11-24T00:58:39.657Z,1.75
2022-11-24T00:59:43.657Z,2.00
2022-11-24T01:00:47.660Z,2.25
2022-11-24T01:01:51.612Z,3.00
2022-11-24T01:02:55.467Z,1.75
2022-11-24T01:03:59.560Z,2.50
2022-11-24T01:05:03.694Z,3.50
2022-11-24T01:06:07.870Z,3.00
2022-11-24T01:07:12.138Z,4.00
2022-11-24T01:08:16.283Z,3.00
2022-11-24T01:09:20.348Z,3.00
2022-11-24T01:10:24.383Z,4.50
2022-11-24T01:11:28.180Z,4.75
2022-11-24T01:12:31.981Z,2.50
2022-11-24T01:13:35.875Z,3.50
2022-11-24T01:14:39.978Z,3.50
2022-11-24T01:15:44.220Z,4.00
2022-11-24T01:16:48.189Z,4.00
2022-11-24T01:17:52.185Z,3.25
2022-11-24T01:18:56.197Z,4.00
2022-11-24T01:20:00.258Z,5.00
2022-11-24T01:21:09.633Z,5.00
2022-11-24T01:22:09.421Z,6.00
2022-11-24T01:23:13.318Z,6.75
2022-11-24T01:24:17.316Z,7.75
2022-11-24T01:25:21.219Z,7.00
2022-11-24T01:26:25.024Z,7.00
2022-11-24T01:27:28.913Z,7.50
2022-11-24T01:28:32.874Z,9.50
2022-11-24T01:29:36.816Z,11.00
2022-11-24T01:30:40.764Z,10.75
2022-11-24T01:31:44.505Z,12.50
2022-11-24T01:32:48.411Z,11.00
2022-11-24T01:33:52.202Z,10.00
2022-11-24T01:34:56.272Z,11.50
2022-11-24T01:36:00.005Z,9.50
2022-11-24T01:37:04.010Z,8.50
2022-11-24T01:38:08.103Z,8.00
2022-11-24T01:39:11.988Z,6.50
2022-11-24T01:40:15.700Z,6.25
2022-11-24T01:41:19.604Z,6.00
2022-11-24T01:42:23.388Z,6.00
2022-11-24T01:43:27.268Z,8.00
2022-11-24T01:44:31.395Z,9.00
2022-11-24T01:45:35.913Z,6.50
2022-11-24T01:46:39.909Z,6.50
2022-11-24T01:47:43.812Z,5.00
2022-11-24T01:48:47.811Z,4.50
2022-11-24T01:49:51.705Z,4.75
2022-11-24T01:50:55.601Z,5.50
2022-11-24T01:51:59.509Z,6.00
2022-11-24T01:53:03.302Z,6.00
2022-11-24T01:54:07.236Z,6.50
2022-11-24T01:55:14.273Z,6.00
2022-11-24T01:56:18.465Z,5.00
2022-11-24T01:57:22.585Z,4.50
2022-11-24T01:58:26.789Z,4.50
2022-11-24T01:59:30.888Z,3.00
2022-11-24T02:00:35.005Z,2.75
2022-11-24T02:01:39.088Z,2.50
2022-11-24T02:02:43.057Z,2.00
2022-11-24T02:03:46.873Z,2.00
2022-11-24T02:04:50.795Z,2.00
2022-11-24T02:05:54.690Z,2.50
2022-11-24T02:06:59.202Z,3.00
2022-11-24T02:08:03.206Z,3.00
2022-11-24T02:09:07.307Z,2.50
2022-11-24T02:10:11.511Z,3.75
2022-11-24T02:11:15.617Z,4.75
2022-11-24T02:12:19.643Z,5.00
2022-11-24T02:13:23.730Z,3.00
2022-11-24T02:14:27.931Z,3.50
2022-11-24T02:15:32.095Z,3.75
2022-11-24T02:16:36.343Z,4.50
2022-11-24T02:17:40.514Z,5.75
2022-11-24T02:18:44.542Z,5.00
2022-11-24T02:19:48.327Z,6.00
2022-11-24T02:20:52.342Z,8.00
2022-11-24T02:21:56.241Z,6.50
2022-11-24T02:23:00.142Z,4.25
2022-11-24T02:24:04.247Z,4.50
2022-11-24T02:25:08.351Z,5.00
2022-11-24T02:26:12.612Z,4.00
2022-11-24T02:27:16.562Z,4.50
2022-11-24T02:28:20.311Z,3.50
2022-11-24T02:29:24.149Z,4.00
2022-11-24T02:30:28.131Z,4.00
2022-11-24T02:31:32.080Z,3.50
2022-11-24T02:32:35.944Z,4.50
2022-11-24T02:33:39.946Z,6.00
2022-11-24T02:34:43.742Z,6.00
2022-11-24T02:35:47.859Z,4.75
2022-11-24T02:36:51.850Z,5.25
2022-11-24T02:37:55.648Z,3.50
2022-11-24T02:38:59.642Z,3.50
2022-11-24T02:40:03.544Z,4.00
2022-11-24T02:41:07.441Z,3.00
2022-11-24T02:42:11.341Z,4.50
2022-11-24T02:43:15.350Z,4.50
2022-11-24T02:44:19.116Z,3.25
2022-11-24T02:45:22.933Z,2.50
2022-11-24T02:46:26.805Z,2.50
2022-11-24T02:47:30.744Z,2.50
2022-11-24T02:48:34.528Z,3.00
2022-11-24T02:49:38.424Z,1.50
2022-11-24T02:50:42.222Z,1.25
2022-11-24T02:51:46.222Z,1.00
2022-11-24T02:52:50.120Z,1.50
2022-11-24T02:53:54.022Z,2.00
2022-11-24T02:54:57.926Z,1.75
2022-11-24T02:56:01.716Z,2.00
2022-11-24T02:57:05.613Z,2.50
2022-11-24T02:58:09.531Z,2.50
2022-11-24T02:59:13.511Z,2.25
2022-11-24T03:00:17.409Z,3.25
2022-11-24T03:01:21.372Z,2.50
2022-11-24T03:02:25.370Z,1.50
2022-11-24T03:03:29.178Z,2.00
2022-11-24T03:04:33.254Z,3.00
2022-11-24T03:05:37.322Z,2.25
2022-11-24T03:06:41.113Z,1.50
2022-11-24T03:07:45.060Z,2.00
2022-11-24T03:08:48.613Z,1.00
2022-11-24T03:09:52.395Z,1.75
2022-11-24T03:10:56.180Z,1.75
2022-11-24T03:12:00.127Z,1.50
2022-11-24T03:13:03.986Z,1.50
2022-11-24T03:14:07.890Z,2.00
2022-11-24T03:15:11.786Z,1.00
2022-11-24T03:16:15.623Z,1.00
2022-11-24T03:17:19.380Z,2.50
2022-11-24T03:18:23.293Z,2.25
2022-11-24T03:19:27.294Z,1.50
2022-11-24T03:20:32.417Z,2.00
2022-11-24T03:21:36.306Z,2.00
2022-11-24T03:22:40.085Z,1.50
2022-11-24T03:23:44.001Z,1.50
2022-11-24T03:24:47.912Z,1.25
2022-11-24T03:25:52.008Z,1.00
2022-11-24T03:26:55.902Z,1.25
2022-11-24T03:27:59.904Z,0.75
2022-11-24T03:29:04.013Z,1.50
2022-11-24T03:30:08.113Z,2.00
2022-11-24T03:31:12.345Z,1.00
2022-11-24T03:32:16.521Z,1.50
2022-11-24T03:33:20.626Z,1.50
2022-11-24T03:34:24.930Z,1.25
2022-11-24T03:35:29.030Z,2.00
2022-11-24T03:36:32.942Z,1.75
2022-11-24T03:37:37.139Z,1.50
2022-11-24T03:38:41.764Z,1.50
2022-11-24T03:39:45.866Z,1.00
2022-11-24T03:40:49.656Z,1.00
2022-11-24T03:41:53.566Z,1.00
2022-11-24T03:42:57.450Z,1.25
2022-11-24T03:44:01.871Z,2.00
2022-11-24T03:45:38.224Z,2.00
2022-11-24T03:46:12.533Z,1.50
2022-11-24T03:47:16.628Z,1.00
2022-11-24T03:48:20.853Z,0.50
2022-11-24T03:49:25.150Z,0.50
2022-11-24T03:50:29.203Z,1.50
2022-11-24T03:51:33.150Z,0.75
2022-11-24T03:52:37.373Z,1.00
2022-11-24T03:53:41.464Z,0.50
2022-11-24T03:54:45.460Z,0.50
2022-11-24T03:55:49.771Z,1.00
2022-11-24T03:56:53.566Z,0.50
2022-11-24T03:57:57.470Z,1.00
2022-11-24T03:59:01.629Z,1.00
2022-11-24T04:00:05.340Z,1.25
2022-11-24T04:01:09.564Z,1.50
2022-11-24T04:02:13.563Z,1.75
2022-11-24T04:03:17.448Z,1.00
2022-11-24T04:04:21.486Z,1.00
2022-11-24T04:08:00.006Z,1.00
2022-11-24T04:09:04.093Z,1.75
2022-11-24T04:10:08.528Z,2.75
2022-11-24T04:11:12.610Z,1.25
2022-11-24T04:12:16.725Z,1.00
2022-11-24T04:13:21.230Z,1.00
2022-11-24T04:14:25.231Z,1.00
2022-11-24T04:15:29.328Z,1.50
2022-11-24T04:16:33.684Z,1.00
2022-11-24T04:17:37.642Z,1.00
2022-11-24T04:18:41.747Z,0.50
2022-11-24T04:19:45.541Z,0.00
2022-11-24T04:20:49.650Z,0.75
2022-11-24T04:21:53.761Z,2.00
2022-11-24T04:22:57.752Z,2.00
2022-11-24T04:24:01.652Z,1.00
2022-11-24T04:25:06.066Z,1.50
2022-11-24T04:26:09.858Z,1.25
2022-11-24T04:27:14.173Z,0.50
2022-11-24T04:28:18.170Z,1.75
2022-11-24T04:29:22.277Z,1.00
2022-11-24T04:30:26.905Z,1.00
2022-11-24T04:31:30.972Z,0.50
2022-11-24T04:32:35.826Z,0.50
2022-11-24T04:33:40.010Z,0.00
2022-11-24T04:34:44.030Z,0.00
2022-11-24T04:35:48.023Z,0.25
2022-11-24T04:36:52.020Z,1.00
2022-11-24T04:37:56.123Z,0.50
2022-11-24T04:39:23.540Z,1.00
2022-11-24T04:40:05.550Z,1.50
2022-11-24T04:41:09.677Z,0.00
2022-11-24T04:42:13.472Z,0.50
2022-11-24T04:43:17.309Z,0.50
2022-11-24T04:44:21.147Z,0.00
2022-11-24T04:45:25.570Z,0.75
2022-11-24T04:46:29.555Z,1.00
2022-11-24T04:47:33.419Z,0.75
2022-11-24T04:48:37.666Z,1.00
2022-11-24T04:49:41.868Z,1.00
2022-11-24T04:50:45.768Z,0.00
2022-11-24T04:51:50.196Z,0.00
2022-11-24T04:52:54.294Z,1.00
2022-11-24T04:53:58.179Z,0.50
2022-11-24T04:55:01.983Z,1.00
2022-11-24T04:56:05.980Z,0.50
2022-11-24T04:57:09.774Z,0.00
2022-11-24T04:58:13.874Z,0.50
2022-11-24T04:59:17.884Z,0.25
2022-11-24T05:00:21.886Z,0.25
2022-11-24T05:01:26.056Z,0.00
2022-11-24T05:02:30.503Z,0.50
2022-11-24T05:03:34.711Z,0.75
2022-11-24T05:04:38.860Z,0.50
2022-11-24T05:05:43.431Z,0.75
2022-11-24T05:06:47.225Z,1.00
2022-11-24T05:07:51.584Z,0.50
2022-11-24T05:08:55.432Z,2.00
2022-11-24T05:09:59.849Z,2.00
2022-11-24T05:11:03.938Z,1.50
2022-11-24T05:12:08.009Z,1.50
2022-11-24T05:13:12.474Z,0.75
2022-11-24T05:14:16.367Z,0.50
2022-11-24T05:15:20.470Z,0.50
2022-11-24T05:16:24.739Z,1.00
2022-11-24T05:17:29.068Z,1.00
2022-11-24T05:18:33.285Z,0.50
2022-11-24T05:19:37.787Z,0.50
2022-11-24T05:20:41.899Z,0.00
2022-11-24T05:21:46.199Z,1.50
2022-11-24T05:22:50.610Z,2.25
2022-11-24T05:23:54.712Z,1.00
2022-11-24T05:24:58.917Z,1.00
2022-11-24T05:26:03.232Z,1.00
2022-11-24T05:27:07.740Z,0.00
2022-11-24T05:28:11.842Z,0.50
2022-11-24T05:29:16.675Z,1.00
2022-11-24T05:30:20.876Z,1.00
2022-11-24T05:31:24.901Z,1.50
2022-11-24T05:32:29.283Z,1.00
2022-11-24T05:33:33.671Z,0.50
2022-11-24T05:34:37.497Z,0.50
2022-11-24T05:35:41.499Z,0.50
2022-11-24T05:36:45.597Z,1.00
2022-11-24T05:37:57.861Z,1.00
2022-11-24T05:39:01.907Z,0.75
2022-11-24T05:40:06.201Z,0.50
2022-11-24T05:41:10.285Z,1.50
2022-11-24T05:42:14.214Z,1.50
2022-11-24T05:43:18.210Z,2.00
2022-11-24T05:44:23.024Z,1.25
2022-11-24T05:45:27.028Z,0.50
2022-11-24T05:46:31.153Z,1.00
2022-11-24T05:47:35.067Z,1.50
2022-11-24T05:48:39.343Z,1.50
2022-11-24T05:49:43.349Z,2.00
2022-11-24T05:50:47.744Z,2.00
2022-11-24T05:51:52.259Z,1.50
2022-11-24T05:52:56.573Z,2.00
2022-11-24T05:54:00.689Z,1.00
2022-11-24T05:55:04.884Z,1.50
2022-11-24T05:56:08.785Z,1.50
2022-11-24T05:57:12.680Z,0.50
2022-11-24T05:58:17.185Z,0.50
2022-11-24T05:59:21.094Z,0.50
2022-11-24T06:00:25.192Z,0.50
2022-11-24T06:01:29.136Z,0.50
2022-11-24T06:02:33.017Z,1.50
2022-11-24T06:03:36.992Z,1.50
2022-11-24T06:04:40.781Z,0.25
2022-11-24T06:05:44.817Z,1.00
2022-11-24T06:06:48.784Z,1.00
2022-11-24T06:07:52.780Z,1.00
2022-11-24T06:08:56.691Z,2.50
2022-11-24T06:10:00.613Z,3.00
2022-11-24T06:11:04.486Z,1.50
2022-11-24T06:12:08.492Z,1.00
2022-11-24T06:13:12.424Z,0.50
2022-11-24T06:14:16.185Z,0.00
2022-11-24T06:15:20.187Z,0.50
2022-11-24T06:16:24.241Z,0.00
2022-11-24T06:17:28.182Z,0.00
2022-11-24T06:18:32.183Z,0.50
2022-11-24T06:19:41.529Z,1.00
2022-11-24T06:20:42.193Z,1.00
2022-11-24T06:21:46.064Z,1.00
2022-11-24T06:22:49.989Z,1.50
2022-11-24T06:23:53.931Z,1.50
2022-11-24T06:24:58.169Z,1.00
2022-11-24T06:26:02.064Z,1.00
2022-11-24T06:27:05.854Z,1.75
2022-11-24T06:28:09.731Z,0.00
2022-11-24T06:29:13.731Z,0.75
2022-11-24T06:30:17.831Z,0.75
2022-11-24T06:31:21.906Z,1.25
2022-11-24T06:32:25.938Z,1.50
2022-11-24T06:33:30.050Z,1.00
2022-11-24T06:34:34.230Z,1.50
2022-11-24T06:35:38.115Z,0.50
2022-11-24T06:36:41.966Z,1.00
2022-11-24T06:37:46.050Z,2.00
2022-11-24T06:38:49.995Z,2.00
2022-11-24T06:39:53.748Z,1.00
2022-11-24T06:40:57.854Z,2.00
2022-11-24T06:42:01.653Z,2.50
2022-11-24T06:43:05.883Z,1.75
2022-11-24T06:44:09.725Z,2.00
2022-11-24T06:45:13.852Z,0.50
2022-11-24T06:46:17.920Z,0.50
2022-11-24T06:47:22.055Z,1.00
2022-11-24T06:48:26.051Z,1.25
2022-11-24T06:49:30.368Z,1.25
2022-11-24T06:50:34.552Z,1.75
2022-11-24T06:51:38.890Z,2.00
2022-11-24T06:52:42.672Z,1.50
2022-11-24T06:53:46.494Z,2.50
2022-11-24T06:54:50.485Z,2.00
2022-11-24T06:55:54.268Z,3.00
2022-11-24T06:56:58.063Z,3.75
2022-11-24T06:58:01.965Z,2.00
2022-11-24T06:59:06.065Z,1.25
2022-11-24T07:00:09.761Z,1.50
2022-11-24T07:01:13.819Z,1.00
2022-11-24T07:02:17.662Z,1.50
2022-11-24T07:03:21.729Z,2.00
2022-11-24T07:04:25.986Z,2.50
2022-11-24T07:05:29.971Z,3.00
2022-11-24T07:06:34.284Z,3.25
2022-11-24T07:07:38.545Z,2.00
2022-11-24T07:08:42.707Z,1.50
2022-11-24T07:09:46.384Z,1.50
2022-11-24T07:10:50.279Z,1.75
2022-11-24T07:11:54.089Z,1.00
2022-11-24T07:12:58.102Z,1.00
2022-11-24T07:14:01.971Z,0.75
2022-11-24T07:15:05.782Z,3.25
2022-11-24T07:16:09.978Z,2.50
2022-11-24T07:17:14.079Z,1.00
2022-11-24T07:18:18.087Z,1.00
2022-11-24T07:19:24.814Z,2.00
2022-11-24T07:20:27.108Z,2.50
2022-11-24T07:21:31.408Z,2.75
2022-11-24T07:22:35.521Z,2.25
2022-11-24T07:23:39.524Z,1.00
2022-11-24T07:24:43.623Z,1.00
2022-11-24T07:25:47.534Z,1.00
2022-11-24T07:26:51.522Z,1.75
2022-11-24T07:27:55.208Z,1.50
2022-11-24T07:28:58.950Z,2.25
2022-11-24T07:30:02.809Z,2.50
2022-11-24T07:31:06.817Z,2.00
2022-11-24T07:32:11.052Z,2.50
2022-11-24T07:33:14.915Z,1.50
2022-11-24T07:34:19.122Z,2.50
2022-11-24T07:35:23.297Z,1.75
2022-11-24T07:36:27.121Z,1.25
2022-11-24T07:37:31.832Z,1.50
2022-11-24T07:38:36.474Z,2.50
2022-11-24T07:39:40.576Z,2.00
2022-11-24T07:40:44.694Z,1.50
2022-11-24T07:41:48.551Z,1.75
2022-11-24T07:42:52.461Z,1.50
2022-11-24T07:43:56.470Z,1.50
2022-11-24T07:45:00.270Z,2.25
2022-11-24T07:46:04.176Z,2.50
2022-11-24T07:47:07.961Z,1.75
2022-11-24T07:48:12.058Z,0.75
2022-11-24T07:49:16.159Z,1.75
2022-11-24T07:50:20.572Z,1.50
2022-11-24T07:51:24.371Z,0.50
2022-11-24T07:52:28.471Z,1.50
2022-11-24T07:53:32.142Z,2.75
2022-11-24T07:54:36.386Z,2.50
2022-11-24T07:55:40.578Z,3.00
2022-11-24T07:56:44.687Z,4.00
2022-11-24T07:57:48.545Z,2.50
2022-11-24T07:58:53.155Z,2.00
2022-11-24T07:59:56.992Z,2.00
2022-11-24T08:01:00.912Z,3.00
2022-11-24T08:02:04.874Z,2.50
2022-11-24T08:03:08.689Z,2.50
2022-11-24T08:04:12.736Z,2.75
2022-11-24T08:05:19.358Z,3.50
2022-11-24T08:06:26.085Z,3.50
2022-11-24T08:07:28.067Z,2.25
2022-11-24T08:08:31.770Z,2.75
2022-11-24T08:09:35.780Z,2.00
2022-11-24T08:10:39.671Z,2.50
2022-11-24T08:11:43.571Z,2.00
2022-11-24T08:12:47.471Z,2.50
2022-11-24T08:13:51.226Z,3.50
2022-11-24T08:14:54.848Z,2.00
2022-11-24T08:15:58.283Z,1.50
2022-11-24T08:17:01.981Z,1.50
2022-11-24T08:18:05.723Z,3.00
2022-11-24T08:19:09.658Z,2.50
2022-11-24T08:20:13.317Z,2.50
2022-11-24T08:21:17.124Z,2.00
2022-11-24T08:22:20.871Z,3.00
2022-11-24T08:23:24.713Z,4.00
2022-11-24T08:24:28.501Z,3.50
2022-11-24T08:25:32.297Z,3.00
2022-11-24T08:26:36.302Z,3.00
2022-11-24T08:27:40.213Z,4.00
2022-11-24T08:28:44.200Z,3.00
2022-11-24T08:31:04.795Z,4.25
2022-11-24T08:32:09.496Z,3.00
2022-11-24T08:33:13.619Z,2.00
2022-11-24T08:34:18.028Z,3.00
2022-11-24T08:35:21.822Z,2.00
2022-11-24T08:36:25.622Z,1.50
2022-11-24T08:37:29.416Z,3.00
2022-11-24T08:38:33.626Z,3.00
2022-11-24T08:39:37.621Z,2.50
2022-11-24T08:40:41.518Z,1.50
2022-11-24T08:41:45.727Z,2.00
2022-11-24T08:42:49.730Z,2.00
2022-11-24T08:43:53.845Z,2.00
2022-11-24T08:44:59.193Z,2.00
2022-11-24T08:46:02.609Z,3.00
2022-11-24T08:47:07.686Z,2.25
2022-11-24T08:48:11.795Z,3.00
2022-11-24T08:49:15.712Z,2.50
2022-11-24T08:50:19.687Z,2.75
2022-11-24T08:51:23.789Z,2.50
2022-11-24T08:52:27.923Z,3.00
2022-11-24T08:53:32.101Z,2.50
2022-11-24T08:54:36.032Z,2.00
2022-11-24T08:55:40.102Z,3.00
2022-11-24T08:56:44.201Z,2.50
2022-11-24T08:57:50.970Z,2.75
2022-11-24T08:58:54.990Z,3.50
2022-11-24T08:59:58.634Z,2.00
2022-11-24T09:01:02.613Z,4.00
2022-11-24T09:02:06.417Z,4.50
2022-11-24T09:03:10.487Z,2.50
2022-11-24T09:04:14.312Z,2.50
2022-11-24T09:05:50.059Z,3.00
2022-11-24T09:06:23.225Z,2.00
2022-11-24T09:07:27.523Z,2.00
2022-11-24T09:08:31.696Z,2.00
2022-11-24T09:09:35.363Z,3.75
2022-11-24T09:10:39.289Z,3.50
2022-11-24T09:11:43.390Z,2.50
2022-11-24T09:12:47.399Z,2.00
2022-11-24T09:13:51.304Z,3.50
2022-11-24T09:14:55.023Z,5.00
2022-11-24T09:15:58.683Z,3.00
2022-11-24T09:17:02.539Z,1.50
2022-11-24T09:18:06.493Z,2.75
2022-11-24T09:19:10.379Z,2.50
2022-11-24T09:20:14.170Z,3.00
2022-11-24T09:21:17.935Z,3.00
2022-11-24T09:22:21.657Z,3.00
2022-11-24T09:23:25.339Z,3.00
2022-11-24T09:24:29.151Z,1.75
2022-11-24T09:25:32.943Z,2.00
2022-11-24T09:26:36.960Z,2.50
2022-11-24T09:27:40.761Z,2.00
2022-11-24T09:28:44.746Z,2.25
2022-11-24T09:29:48.454Z,2.75
2022-11-24T09:30:52.165Z,1.75
2022-11-24T09:31:55.932Z,2.50
2022-11-24T09:32:59.929Z,3.00
2022-11-24T09:34:03.929Z,2.00
2022-11-24T09:35:07.731Z,2.00
2022-11-24T09:36:11.419Z,3.00
2022-11-24T09:37:15.327Z,2.50
2022-11-24T09:38:19.010Z,2.25
2022-11-24T09:39:22.910Z,3.50
2022-11-24T09:40:26.715Z,3.00
2022-11-24T09:41:30.709Z,2.50
2022-11-24T09:42:34.511Z,2.50
2022-11-24T09:43:38.510Z,3.00
2022-11-24T09:44:42.154Z,3.50
2022-11-24T09:46:50.968Z,1.50
2022-11-24T09:47:55.021Z,2.50
2022-11-24T09:48:58.816Z,1.75
2022-11-24T09:50:02.622Z,1.50
2022-11-24T09:51:09.593Z,2.25
2022-11-24T09:52:13.563Z,2.50
2022-11-24T09:53:17.283Z,3.00
2022-11-24T09:54:21.178Z,3.00
2022-11-24T09:55:25.005Z,2.25
2022-11-24T09:56:29.184Z,0.25
2022-11-24T09:57:37.047Z,2.00
2022-11-24T09:58:38.115Z,2.50
2022-11-24T09:59:41.901Z,2.00
2022-11-24T10:00:45.795Z,4.00
2022-11-24T10:01:50.208Z,2.00
2022-11-24T10:02:53.903Z,2.25
2022-11-24T10:04:02.615Z,3.00
2022-11-24T10:05:02.617Z,3.00
2022-11-24T10:06:06.627Z,2.50
2022-11-24T10:07:10.372Z,2.50
2022-11-24T10:08:14.544Z,3.00
2022-11-24T10:09:18.669Z,2.25
2022-11-24T10:10:25.011Z,3.00
2022-11-24T10:11:27.311Z,2.75
2022-11-24T10:12:31.251Z,2.50
2022-11-24T10:13:35.345Z,3.00
2022-11-24T10:14:39.248Z,3.00
2022-11-24T10:15:43.290Z,3.00
2022-11-24T10:16:47.145Z,2.00
2022-11-24T10:17:51.150Z,2.00
2022-11-24T10:18:54.967Z,2.75
2022-11-24T10:19:58.742Z,2.50
2022-11-24T10:21:02.637Z,1.25
2022-11-24T10:22:06.542Z,2.25
2022-11-24T10:23:10.436Z,4.00
2022-11-24T10:24:14.434Z,4.25
2022-11-24T10:25:18.442Z,3.75
2022-11-24T10:26:22.435Z,3.75
2022-11-24T10:27:26.271Z,2.50
2022-11-24T10:28:30.344Z,3.00
2022-11-24T10:29:34.346Z,3.00
2022-11-24T10:30:38.327Z,1.50
2022-11-24T10:31:42.135Z,1.50
2022-11-24T10:32:45.934Z,2.00
2022-11-24T10:33:49.731Z,3.50
2022-11-24T10:34:53.533Z,3.00
2022-11-24T10:35:57.241Z,3.00
2022-11-24T10:37:01.037Z,2.50
2022-11-24T10:38:04.917Z,1.50
2022-11-24T10:39:08.814Z,3.50
2022-11-24T10:40:26.942Z,3.00
2022-11-24T10:41:17.529Z,2.50
2022-11-24T10:42:21.428Z,2.00
2022-11-24T10:43:25.253Z,3.50
2022-11-24T10:44:29.224Z,3.25
2022-11-24T10:45:33.024Z,3.50
2022-11-24T10:46:39.348Z,2.75
2022-11-24T10:47:41.654Z,3.00
2022-11-24T10:48:45.443Z,3.50
2022-11-24T10:49:49.339Z,3.00
2022-11-24T10:50:53.133Z,3.00
2022-11-24T10:51:57.131Z,2.50
2022-11-24T10:53:01.032Z,3.50
2022-11-24T10:54:04.734Z,3.25
2022-11-24T10:55:08.621Z,3.00
2022-11-24T10:56:12.511Z,2.00
2022-11-24T10:57:16.217Z,2.75
2022-11-24T10:58:20.009Z,3.00
2022-11-24T10:59:23.807Z,2.00
2022-11-24T11:00:27.510Z,1.50
2022-11-24T11:01:31.387Z,0.00
2022-11-24T11:02:35.249Z,2.25
2022-11-24T11:03:39.107Z,2.75
2022-11-24T11:04:43.014Z,1.75
2022-11-24T11:05:46.792Z,1.00
2022-11-24T11:06:50.603Z,1.50
2022-11-24T11:07:54.559Z,3.50
2022-11-24T11:08:58.287Z,3.75
2022-11-24T11:10:01.976Z,2.50
2022-11-24T11:11:05.881Z,2.50
2022-11-24T11:12:35.799Z,2.00
2022-11-24T11:13:14.812Z,2.50
2022-11-24T11:14:18.592Z,2.00
2022-11-24T11:15:22.289Z,1.50
2022-11-24T11:16:26.215Z,2.50
2022-11-24T11:17:30.008Z,2.50
2022-11-24T11:18:33.811Z,2.00
2022-11-24T11:19:58.447Z,2.75
2022-11-24T11:20:43.119Z,1.75
2022-11-24T11:21:46.923Z,2.00
2022-11-24T11:22:50.775Z,2.00
2022-11-24T11:23:54.817Z,3.00
2022-11-24T11:24:58.718Z,3.50
2022-11-24T11:26:02.817Z,3.00
2022-11-24T11:27:06.710Z,4.00
2022-11-24T11:28:15.016Z,3.75
2022-11-24T11:31:25.491Z,4.00
2022-11-24T11:34:39.078Z,3.25
2022-11-24T11:35:43.164Z,3.50
2022-11-24T11:36:46.718Z,3.00
2022-11-24T11:37:50.614Z,2.00
2022-11-24T11:38:54.322Z,2.00
2022-11-24T11:39:58.104Z,2.75
2022-11-24T11:41:02.007Z,2.00
2022-11-24T11:42:05.908Z,2.50
2022-11-24T11:43:09.717Z,3.25
2022-11-24T11:44:13.405Z,2.50
2022-11-24T11:45:17.242Z,2.25
2022-11-24T11:46:21.289Z,2.50
2022-11-24T11:47:25.182Z,2.50
2022-11-24T11:48:31.438Z,2.00
2022-11-24T11:49:34.011Z,1.75
2022-11-24T11:50:59.202Z,1.50
2022-11-24T11:51:42.957Z,4.50
2022-11-24T11:52:46.628Z,4.00
2022-11-24T11:53:50.607Z,2.00
2022-11-24T11:54:54.327Z,2.50
2022-11-24T11:55:58.123Z,3.25
2022-11-24T11:57:01.807Z,2.25
2022-11-24T11:58:05.525Z,1.50
2022-11-24T11:59:09.711Z,4.00
2022-11-24T12:00:13.590Z,3.75
2022-11-24T12:01:17.549Z,2.75
2022-11-24T12:02:21.494Z,2.25
2022-11-24T12:03:25.374Z,3.50
2022-11-24T12:04:29.096Z,2.50
2022-11-24T12:05:32.827Z,1.50
2022-11-24T12:06:36.908Z,1.50
2022-11-24T12:07:40.891Z,2.00
2022-11-24T12:09:17.884Z,2.00
2022-11-24T12:09:49.871Z,2.25
2022-11-24T12:10:53.649Z,1.50
2022-11-24T12:11:57.665Z,2.00
2022-11-24T12:13:01.539Z,2.50
2022-11-24T12:14:05.529Z,3.00
2022-11-24T12:15:10.945Z,3.25
2022-11-24T12:16:14.312Z,2.25
2022-11-24T12:17:18.063Z,2.50
2022-11-24T12:18:48.986Z,2.50
2022-11-24T12:19:26.755Z,3.50
2022-11-24T12:20:30.562Z,4.50
2022-11-24T12:21:34.453Z,4.00
2022-11-24T12:22:38.350Z,2.50
2022-11-24T12:23:42.372Z,3.50
2022-11-24T12:24:46.380Z,3.00
2022-11-24T12:25:50.029Z,3.50
2022-11-24T12:26:54.355Z,5.75
2022-11-24T12:27:58.356Z,4.00
2022-11-24T12:29:02.355Z,2.00
2022-11-24T12:30:06.188Z,2.00
2022-11-24T12:31:09.998Z,3.00
2022-11-24T12:32:13.851Z,2.00
2022-11-24T12:33:17.662Z,1.75
2022-11-24T12:34:21.645Z,4.50
2022-11-24T12:35:25.333Z,4.75
2022-11-24T12:36:29.242Z,3.50
2022-11-24T12:37:33.243Z,2.00
2022-11-24T12:38:36.996Z,2.25
2022-11-24T12:39:40.925Z,4.00
2022-11-24T12:40:47.157Z,2.75
2022-11-24T12:41:49.762Z,3.50
2022-11-24T12:42:53.756Z,2.50
2022-11-24T12:43:57.553Z,2.50
2022-11-24T12:45:01.855Z,3.50
2022-11-24T12:46:05.684Z,3.50
2022-11-24T12:47:09.628Z,3.00
2022-11-24T12:48:13.563Z,2.50
2022-11-24T12:49:17.554Z,3.50
2022-11-24T12:50:21.553Z,3.50
2022-11-24T12:51:25.565Z,3.00
2022-11-24T12:52:29.356Z,3.50
2022-11-24T12:53:33.154Z,2.50
2022-11-24T12:54:36.951Z,3.00
2022-11-24T12:55:40.950Z,2.50
2022-11-24T12:56:44.630Z,2.00
2022-11-24T12:57:48.344Z,2.50
2022-11-24T12:58:52.140Z,3.50
2022-11-24T12:59:56.027Z,3.00
2022-11-24T13:01:00.040Z,2.50
2022-11-24T13:02:03.988Z,1.50
2022-11-24T13:03:07.795Z,1.00
2022-11-24T13:04:11.527Z,1.25
2022-11-24T13:05:15.369Z,2.50
2022-11-24T13:06:19.019Z,2.75
2022-11-24T13:07:22.969Z,3.00
2022-11-24T13:08:26.715Z,3.00
2022-11-24T13:09:30.507Z,1.75
2022-11-24T13:10:55.849Z,3.00
2022-11-24T13:11:39.107Z,3.50
2022-11-24T13:12:42.781Z,2.00
2022-11-24T13:13:46.502Z,2.00
2022-11-24T13:14:50.419Z,1.75
2022-11-24T13:17:27.923Z,2.00
2022-11-24T13:18:11.839Z,2.75
2022-11-24T13:19:08.948Z,2.50
2022-11-24T13:20:12.793Z,2.50
2022-11-24T13:21:16.482Z,2.50
2022-11-24T13:22:20.267Z,2.50
2022-11-24T13:23:24.058Z,2.00
2022-11-24T13:24:27.907Z,2.50
2022-11-24T13:25:31.647Z,2.75
2022-11-24T13:26:37.529Z,2.00
2022-11-24T13:27:40.580Z,2.00
2022-11-24T13:29:01.353Z,2.00
2022-11-24T13:29:49.399Z,2.00
2022-11-24T13:30:53.219Z,3.00
2022-11-24T13:31:57.119Z,3.00
2022-11-24T13:33:00.986Z,2.00
2022-11-24T13:34:04.689Z,2.50
2022-11-24T13:35:08.585Z,2.50
2022-11-24T13:36:12.608Z,2.25
2022-11-24T13:37:31.376Z,2.25
2022-11-24T13:38:21.302Z,2.00
2022-11-24T13:39:25.311Z,2.00
2022-11-24T13:40:29.101Z,3.75
2022-11-24T13:41:32.811Z,3.50
2022-11-24T13:42:41.751Z,1.50
2022-11-24T13:43:41.715Z,1.50
2022-11-24T13:44:45.824Z,2.50
2022-11-24T13:45:50.139Z,2.00
2022-11-24T13:46:54.183Z,3.00
2022-11-24T13:47:58.337Z,3.50
2022-11-24T13:49:02.128Z,2.50
2022-11-24T13:50:05.817Z,2.25
2022-11-24T13:51:09.632Z,3.50
2022-11-24T13:52:13.315Z,3.50
2022-11-24T13:53:17.328Z,2.50
2022-11-24T13:54:21.418Z,3.00
2022-11-24T13:55:25.110Z,4.50
2022-11-24T13:56:29.119Z,4.00
2022-11-24T13:57:32.905Z,3.50
2022-11-24T13:58:37.016Z,2.50
2022-11-24T13:59:40.924Z,2.00
2022-11-24T14:00:44.621Z,2.00
2022-11-24T14:01:48.496Z,2.50
2022-11-24T14:02:52.391Z,3.00
2022-11-24T14:11:12.243Z,3.00
2022-11-24T14:12:16.263Z,2.25
2022-11-24T14:13:19.914Z,3.00
2022-11-24T14:14:23.933Z,3.50
2022-11-24T14:15:27.893Z,2.00
2022-11-24T14:16:31.671Z,3.00
2022-11-24T14:17:35.610Z,4.00
2022-11-24T14:18:39.417Z,3.00
2022-11-24T14:19:43.295Z,4.00
2022-11-24T14:20:47.094Z,4.25
2022-11-24T14:21:50.817Z,4.00
2022-11-24T14:22:54.593Z,3.75
2022-11-24T14:23:58.295Z,3.00
2022-11-24T14:25:02.219Z,5.00
2022-11-24T14:26:05.988Z,2.50
2022-11-24T14:27:09.749Z,1.25
2022-11-24T14:28:13.740Z,3.75
2022-11-24T14:29:17.505Z,4.50
2022-11-24T14:30:21.493Z,3.00